createdAt,value
2023-01-09T00:00:52.422Z,14.25
2023-01-09T00:03:55.586Z,16.25
2023-01-09T00:06:58.283Z,12.63
2023-01-09T00:10:01.212Z,12.82
2023-01-09T00:13:03.933Z,12.68
2023-01-09T00:16:08.234Z,10.32
2023-01-09T00:19:11.324Z,13.13
2023-01-09T00:22:14.264Z,12.18
2023-01-09T00:25:16.979Z,11.48
2023-01-09T00:28:19.856Z,11.00
2023-01-09T00:31:22.524Z,13.40
2023-01-09T00:34:25.950Z,11.23
2023-01-09T00:37:28.533Z,11.65
2023-01-09T00:40:31.772Z,10.25
2023-01-09T00:43:42.718Z,11.23
2023-01-09T00:46:51.471Z,14.00
2023-01-09T00:49:58.601Z,9.85
2023-01-09T00:53:07.798Z,11.15
2023-01-09T00:56:15.056Z,12.75
2023-01-09T00:59:20.869Z,11.30
2023-01-09T01:02:23.769Z,13.20
2023-01-09T01:05:45.486Z,11.38
2023-01-09T01:08:48.137Z,11.98
2023-01-09T01:11:50.914Z,12.45
2023-01-09T01:14:53.480Z,10.45
2023-01-09T01:17:56.384Z,12.77
2023-01-09T01:20:59.067Z,15.20
2023-01-09T01:24:01.899Z,14.05
2023-01-09T01:27:04.586Z,10.98
2023-01-09T01:30:10.686Z,10.63
2023-01-09T01:33:13.332Z,10.13
2023-01-09T01:36:17.651Z,12.02
2023-01-09T01:39:20.337Z,11.27
2023-01-09T01:42:23.233Z,14.05
2023-01-09T01:45:28.460Z,13.68
2023-01-09T01:48:32.438Z,11.50
2023-01-09T01:51:39.877Z,10.27
2023-01-09T01:54:43.571Z,10.38
2023-01-09T01:57:50.316Z,11.10
2023-01-09T02:00:53.772Z,11.10
2023-01-09T02:03:59.243Z,10.88
2023-01-09T02:07:07.431Z,13.50
2023-01-09T02:10:10.466Z,10.77
2023-01-09T02:13:14.142Z,10.00
2023-01-09T02:16:29.979Z,10.18
2023-01-09T02:19:52.548Z,11.68
2023-01-09T02:23:16.550Z,13.45
2023-01-09T02:26:36.825Z,12.35
2023-01-09T02:29:50.518Z,9.88
2023-01-09T02:33:24.967Z,11.15
2023-01-09T02:36:52.264Z,11.23
2023-01-09T02:40:04.427Z,10.43
2023-01-09T02:43:07.616Z,11.93
2023-01-09T02:46:22.260Z,11.18
2023-01-09T02:49:25.047Z,10.10
2023-01-09T02:52:47.864Z,11.50
2023-01-09T02:55:53.255Z,8.13
2023-01-09T02:59:31.252Z,8.43
2023-01-09T03:02:40.074Z,9.68
2023-01-09T03:05:52.238Z,10.70
2023-01-09T03:09:05.426Z,12.70
2023-01-09T03:12:16.448Z,10.63
2023-01-09T03:15:23.885Z,9.93
2023-01-09T03:18:30.711Z,12.67
2023-01-09T03:21:33.941Z,11.95
2023-01-09T03:24:38.829Z,10.57
2023-01-09T03:27:41.381Z,9.25
2023-01-09T03:30:44.345Z,10.73
2023-01-09T03:33:47.065Z,11.63
2023-01-09T03:36:49.938Z,11.45
2023-01-09T03:39:52.551Z,12.43
2023-01-09T03:42:55.377Z,13.82
2023-01-09T03:45:58.484Z,12.70
2023-01-09T03:49:02.599Z,12.35
2023-01-09T03:52:05.561Z,11.43
2023-01-09T03:55:08.809Z,12.80
2023-01-09T03:58:11.521Z,10.32
2023-01-09T04:01:14.485Z,10.60
2023-01-09T04:04:17.508Z,13.32
2023-01-09T04:07:20.162Z,12.98
2023-01-09T04:10:23.237Z,13.73
2023-01-09T04:13:25.773Z,10.77
2023-01-09T04:16:28.660Z,10.15
2023-01-09T04:19:31.454Z,10.00
2023-01-09T04:22:34.387Z,11.75
2023-01-09T04:25:36.953Z,11.52
2023-01-09T04:28:39.838Z,8.82
2023-01-09T04:31:42.997Z,14.27
2023-01-09T04:34:45.906Z,10.73
2023-01-09T04:37:48.556Z,12.73
2023-01-09T04:40:51.501Z,12.57
2023-01-09T04:43:54.135Z,11.68
2023-01-09T04:46:58.974Z,10.68
2023-01-09T04:50:02.040Z,8.20
2023-01-09T04:53:05.956Z,9.75
2023-01-09T04:56:08.574Z,12.98
2023-01-09T04:59:11.433Z,12.00
2023-01-09T05:02:14.419Z,13.13
2023-01-09T05:05:17.438Z,9.68
2023-01-09T05:08:19.981Z,12.07
2023-01-09T05:11:23.668Z,10.73
2023-01-09T05:14:26.286Z,13.45
2023-01-09T05:17:29.421Z,10.70
2023-01-09T05:20:32.092Z,8.55
2023-01-09T05:23:35.071Z,9.52
2023-01-09T05:26:37.616Z,10.18
2023-01-09T05:29:41.361Z,10.65
2023-01-09T05:32:43.964Z,12.57
2023-01-09T05:35:46.837Z,11.20
2023-01-09T05:38:49.394Z,12.77
2023-01-09T05:41:52.610Z,15.23
2023-01-09T05:44:55.257Z,9.15
2023-01-09T05:47:58.294Z,11.25
2023-01-09T05:51:00.987Z,12.32
2023-01-09T05:54:05.455Z,12.18
2023-01-09T05:57:07.971Z,12.18
2023-01-09T06:00:11.639Z,10.55
2023-01-09T06:03:15.299Z,12.68
2023-01-09T06:06:17.892Z,11.10
2023-01-09T06:09:21.729Z,12.25
2023-01-09T06:12:24.401Z,12.30
2023-01-09T06:15:27.583Z,12.77
2023-01-09T06:18:30.168Z,11.48
2023-01-09T06:21:33.837Z,14.77
2023-01-09T06:24:36.538Z,14.35
2023-01-09T06:27:39.445Z,11.10
2023-01-09T06:30:42.085Z,11.23
2023-01-09T06:33:45.133Z,17.00
2023-01-09T06:36:47.744Z,9.00
2023-01-09T06:39:50.809Z,10.68
2023-01-09T06:42:53.354Z,10.05
2023-01-09T06:45:56.982Z,12.37
2023-01-09T06:48:59.687Z,12.98
2023-01-09T06:52:07.683Z,8.77
2023-01-09T06:55:10.495Z,15.33
2023-01-09T06:58:13.658Z,13.93
2023-01-09T07:01:16.684Z,19.80
2023-01-09T07:04:22.081Z,11.02
2023-01-09T07:07:24.717Z,9.10
2023-01-09T07:10:27.880Z,10.98
2023-01-09T07:13:30.470Z,8.45
2023-01-09T07:16:33.677Z,11.93
2023-01-09T07:19:36.376Z,13.57
2023-01-09T07:22:39.487Z,10.27
2023-01-09T07:25:42.703Z,9.50
2023-01-09T07:28:45.936Z,10.10
2023-01-09T07:31:48.997Z,12.57
2023-01-09T07:34:51.970Z,10.70
2023-01-09T07:37:54.569Z,11.10
2023-01-09T07:40:57.528Z,8.40
2023-01-09T07:44:00.122Z,12.43
2023-01-09T07:47:03.025Z,9.90
2023-01-09T07:50:06.120Z,11.48
2023-01-09T07:53:09.040Z,8.95
2023-01-09T07:56:12.159Z,8.30
2023-01-09T07:59:15.003Z,7.60
2023-01-09T08:02:18.325Z,9.90
2023-01-09T08:05:22.157Z,9.82
2023-01-09T08:08:25.196Z,13.38
2023-01-09T08:11:28.135Z,8.57
2023-01-09T08:14:31.054Z,9.18
2023-01-09T08:17:33.997Z,9.60
2023-01-09T08:20:36.645Z,7.50
2023-01-09T08:23:39.814Z,10.52
2023-01-09T08:26:42.508Z,9.63
2023-01-09T08:29:45.586Z,9.52
2023-01-09T08:32:53.541Z,7.62
2023-01-09T08:35:56.575Z,8.32
2023-01-09T08:38:59.499Z,9.63
2023-01-09T08:42:22.253Z,7.78
2023-01-09T08:45:44.282Z,10.93
2023-01-09T08:48:48.448Z,6.50
2023-01-09T08:51:51.562Z,8.05
2023-01-09T08:54:54.441Z,8.18
2023-01-09T08:57:56.990Z,7.22
2023-01-09T09:00:59.824Z,9.27
2023-01-09T09:04:05.418Z,10.13
2023-01-09T09:07:08.274Z,11.95
2023-01-09T09:10:11.163Z,13.62
2023-01-09T09:13:14.029Z,10.75
2023-01-09T09:16:16.609Z,10.07
2023-01-09T09:19:19.749Z,11.75
2023-01-09T09:22:22.451Z,8.93
2023-01-09T09:25:26.047Z,14.27
2023-01-09T09:28:28.706Z,9.63
2023-01-09T09:31:31.707Z,8.70
2023-01-09T09:34:34.356Z,8.13
2023-01-09T09:37:37.986Z,7.70
2023-01-09T09:41:03.876Z,11.20
2023-01-09T09:44:48.354Z,13.55
2023-01-09T09:48:14.281Z,13.55
2023-01-09T09:51:42.851Z,9.10
2023-01-09T09:54:50.352Z,11.12
2023-01-09T09:57:55.206Z,14.98
2023-01-09T10:01:00.815Z,7.62
2023-01-09T10:04:09.669Z,10.88
2023-01-09T10:07:21.982Z,15.18
2023-01-09T10:10:44.038Z,10.20
2023-01-09T10:14:06.393Z,8.68
2023-01-09T10:17:29.524Z,11.77
2023-01-09T10:21:18.784Z,14.73
2023-01-09T10:24:36.833Z,11.75
2023-01-09T10:27:51.338Z,11.65
2023-01-09T10:31:09.748Z,11.15
2023-01-09T10:34:31.722Z,9.30
2023-01-09T10:37:42.500Z,12.82
2023-01-09T10:41:01.724Z,12.05
2023-01-09T10:44:15.062Z,12.93
2023-01-09T10:47:23.605Z,10.98
2023-01-09T10:50:35.851Z,12.20
2023-01-09T10:53:45.634Z,8.43
2023-01-09T10:56:56.163Z,15.95
2023-01-09T10:59:58.842Z,11.20
2023-01-09T11:03:01.914Z,9.68
2023-01-09T11:06:21.933Z,11.07
2023-01-09T11:09:25.305Z,10.52
2023-01-09T11:12:35.469Z,12.73
2023-01-09T11:15:44.291Z,11.15
2023-01-09T11:18:56.243Z,13.65
2023-01-09T11:22:14.940Z,15.57
2023-01-09T11:28:22.168Z,10.13
2023-01-09T11:31:25.952Z,13.80
2023-01-09T11:34:32.405Z,11.45
2023-01-09T11:37:35.399Z,13.23
2023-01-09T11:41:03.286Z,12.65
2023-01-09T11:44:06.020Z,15.88
2023-01-09T11:47:26.853Z,11.80
2023-01-09T11:50:31.387Z,13.43
2023-01-09T11:53:46.118Z,12.15
2023-01-09T11:56:49.868Z,10.20
2023-01-09T11:59:56.794Z,11.15
2023-01-09T12:03:28.833Z,15.38
2023-01-09T12:06:53.396Z,11.15
2023-01-09T12:10:37.508Z,10.60
2023-01-09T12:13:56.552Z,14.95
2023-01-09T12:17:59.148Z,12.05
2023-01-09T12:21:26.578Z,10.98
2023-01-09T12:24:47.369Z,14.00
2023-01-09T12:28:18.247Z,11.43
2023-01-09T12:31:48.193Z,13.45
2023-01-09T12:34:51.182Z,11.85
2023-01-09T12:38:07.592Z,13.98
2023-01-09T12:41:23.192Z,10.85
2023-01-09T12:44:39.754Z,14.63
2023-01-09T12:47:51.252Z,12.27
2023-01-09T12:51:22.219Z,11.55
2023-01-09T12:54:42.884Z,15.70
2023-01-09T12:57:51.139Z,13.07
2023-01-09T13:00:56.890Z,11.55
2023-01-09T13:04:12.821Z,12.20
2023-01-09T13:07:24.636Z,12.52
2023-01-09T13:10:33.762Z,13.05
2023-01-09T13:13:47.287Z,13.50
2023-01-09T13:16:52.554Z,13.13
2023-01-09T13:19:55.714Z,15.52
2023-01-09T13:23:00.560Z,11.15
2023-01-09T13:26:10.465Z,12.18
2023-01-09T13:29:21.403Z,16.85
2023-01-09T13:32:53.724Z,14.50
2023-01-09T13:35:58.583Z,12.82
2023-01-09T13:39:02.362Z,12.52
2023-01-09T13:42:26.027Z,18.00
2023-01-09T13:45:39.778Z,14.85
2023-01-09T13:48:42.551Z,12.23
2023-01-09T13:51:48.480Z,16.98
2023-01-09T13:54:51.681Z,14.93
2023-01-09T13:58:08.215Z,15.02
2023-01-09T14:01:35.481Z,17.50
2023-01-09T14:04:43.223Z,14.70
2023-01-09T14:07:49.270Z,19.45
2023-01-09T14:10:57.970Z,18.77
2023-01-09T14:14:03.795Z,16.15
2023-01-09T14:17:25.041Z,14.55
2023-01-09T14:20:37.873Z,16.73
2023-01-09T14:23:53.727Z,15.10
2023-01-09T14:26:59.888Z,17.50
2023-01-09T14:30:28.376Z,17.15
2023-01-09T14:33:32.917Z,22.48
2023-01-09T14:36:36.816Z,14.48
2023-01-09T14:39:44.763Z,16.25
2023-01-09T14:42:55.362Z,14.10
2023-01-09T14:46:04.783Z,18.23
2023-01-09T14:49:14.279Z,16.42
2023-01-09T14:52:25.560Z,19.08
2023-01-09T14:55:54.280Z,14.98
2023-01-09T14:59:12.357Z,20.77
2023-01-09T15:05:22.411Z,17.55
2023-01-09T15:08:28.143Z,13.10
2023-01-09T15:11:32.393Z,17.87
2023-01-09T15:14:43.516Z,16.30
2023-01-09T15:18:11.032Z,19.20
2023-01-09T15:21:27.187Z,18.30
2023-01-09T15:24:33.519Z,14.68
2023-01-09T15:27:50.594Z,16.25
2023-01-09T15:31:17.892Z,17.87
2023-01-09T15:34:23.964Z,19.27
2023-01-09T15:37:34.769Z,22.02
2023-01-09T15:40:38.004Z,24.70
2023-01-09T15:43:44.160Z,18.73
2023-01-09T15:46:50.131Z,15.95
2023-01-09T15:49:53.632Z,20.95
2023-01-09T15:52:57.072Z,16.05
2023-01-09T15:56:02.345Z,19.70
2023-01-09T15:59:27.898Z,17.70
2023-01-09T16:02:49.502Z,17.60
2023-01-09T16:06:02.497Z,14.23
2023-01-09T16:09:16.500Z,15.00
2023-01-09T16:12:23.482Z,19.12
2023-01-09T16:15:27.413Z,15.40
2023-01-09T16:18:37.441Z,19.27
2023-01-09T16:21:40.861Z,16.92
2023-01-09T16:24:43.770Z,17.77
2023-01-09T16:31:32.586Z,23.30
2023-01-09T16:34:35.952Z,18.95
2023-01-09T16:37:40.185Z,23.38
2023-01-09T16:41:34.613Z,20.00
2023-01-09T16:44:37.606Z,18.60
2023-01-09T16:47:40.189Z,22.50
2023-01-09T16:50:44.668Z,20.27
2023-01-09T16:53:48.196Z,17.85
2023-01-09T16:56:54.441Z,23.00
2023-01-09T17:00:01.629Z,20.23
2023-01-09T17:03:04.552Z,24.60
2023-01-09T17:06:10.329Z,20.23
2023-01-09T17:09:19.793Z,19.58
2023-01-09T17:12:24.887Z,19.12
2023-01-09T17:15:27.812Z,21.60
2023-01-09T17:18:30.461Z,28.30
2023-01-09T17:21:33.390Z,20.12
2023-01-09T17:24:54.626Z,20.85
2023-01-09T17:28:15.991Z,20.80
2023-01-09T17:31:19.230Z,18.25
2023-01-09T17:34:22.558Z,24.65
2023-01-09T17:37:25.247Z,23.98
2023-01-09T17:40:28.580Z,22.00
2023-01-09T17:43:32.101Z,23.48
2023-01-09T17:46:38.059Z,21.55
2023-01-09T17:49:41.866Z,20.15
2023-01-09T17:52:44.812Z,25.12
2023-01-09T17:55:47.580Z,23.65
2023-01-09T17:58:51.702Z,21.37
2023-01-09T18:01:54.320Z,23.25
2023-01-09T18:04:57.333Z,21.90
2023-01-09T18:08:00.452Z,21.30
2023-01-09T18:11:09.061Z,23.98
2023-01-09T18:14:13.825Z,21.80
2023-01-09T18:17:16.985Z,28.00
2023-01-09T18:20:19.805Z,23.92
2023-01-09T18:23:23.395Z,22.05
2023-01-09T18:26:26.708Z,23.05
2023-01-09T18:29:29.888Z,24.17
2023-01-09T18:32:32.530Z,30.27
2023-01-09T18:35:39.279Z,22.50
2023-01-09T18:38:43.771Z,27.13
2023-01-09T18:41:47.055Z,24.90
2023-01-09T18:44:49.920Z,21.00
2023-01-09T18:47:53.016Z,22.48
2023-01-09T18:51:05.881Z,26.67
2023-01-09T18:54:09.159Z,25.80
2023-01-09T18:57:12.062Z,28.38
2023-01-09T19:00:15.350Z,26.08
2023-01-09T19:03:17.965Z,22.48
2023-01-09T19:06:21.101Z,24.87
2023-01-09T19:09:24.215Z,21.37
2023-01-09T19:12:27.530Z,19.33
2023-01-09T19:15:30.146Z,27.55
2023-01-09T19:18:36.732Z,21.45
2023-01-09T19:21:39.565Z,27.58
2023-01-09T19:24:42.924Z,25.08
2023-01-09T19:27:45.842Z,27.77
2023-01-09T19:30:56.354Z,19.83
2023-01-09T19:33:59.272Z,24.92
2023-01-09T19:37:02.501Z,20.85
2023-01-09T19:40:05.702Z,19.77
2023-01-09T19:43:08.734Z,26.58
2023-01-09T19:46:14.673Z,21.00
2023-01-09T19:49:18.000Z,22.58
2023-01-09T19:52:20.900Z,19.70
2023-01-09T19:55:24.124Z,24.15
2023-01-09T19:58:27.908Z,19.70
2023-01-09T20:01:36.715Z,18.52
2023-01-09T20:04:40.162Z,16.52
2023-01-09T20:07:42.758Z,16.80
2023-01-09T20:10:45.783Z,15.52
2023-01-09T20:13:48.726Z,13.52
2023-01-09T20:16:54.081Z,15.88
2023-01-09T20:19:56.819Z,18.45
2023-01-09T20:22:59.727Z,17.02
2023-01-09T20:26:03.519Z,16.45
2023-01-09T20:29:08.782Z,14.60
2023-01-09T20:32:11.907Z,13.88
2023-01-09T20:35:15.267Z,13.48
2023-01-09T20:38:17.909Z,14.05
2023-01-09T20:41:25.357Z,11.68
2023-01-09T20:44:28.025Z,14.87
2023-01-09T20:47:31.213Z,11.18
2023-01-09T20:50:34.119Z,15.77
2023-01-09T20:53:37.155Z,13.70
2023-01-09T20:56:39.898Z,12.35
2023-01-09T20:59:42.779Z,10.93
2023-01-09T21:02:45.432Z,17.58
2023-01-09T21:05:48.409Z,16.95
2023-01-09T21:08:52.996Z,13.23
2023-01-09T21:11:55.865Z,15.27
2023-01-09T21:15:02.070Z,19.12
2023-01-09T21:18:05.366Z,13.70
2023-01-09T21:21:12.774Z,16.55
2023-01-09T21:24:15.922Z,13.27
2023-01-09T21:27:19.577Z,13.50
2023-01-09T21:30:22.536Z,18.58
2023-01-09T21:33:25.217Z,14.00
2023-01-09T21:36:28.163Z,13.80
2023-01-09T21:39:30.963Z,11.73
2023-01-09T21:42:52.392Z,10.70
2023-01-09T21:46:13.431Z,12.10
2023-01-09T21:49:16.565Z,11.68
2023-01-09T21:52:19.131Z,10.45
2023-01-09T21:55:22.032Z,11.70
2023-01-09T21:58:27.588Z,15.93
2023-01-09T22:01:30.416Z,14.35
2023-01-09T22:04:33.570Z,12.50
2023-01-09T22:07:36.208Z,11.27
2023-01-09T22:10:41.689Z,12.63
2023-01-09T22:13:48.114Z,11.25
2023-01-09T22:16:50.943Z,11.60
2023-01-09T22:19:53.563Z,12.37
2023-01-09T22:22:56.500Z,12.00
2023-01-09T22:26:00.665Z,11.73
2023-01-09T22:29:03.536Z,12.32
2023-01-09T22:32:06.209Z,9.80
2023-01-09T22:35:09.667Z,10.55
2023-01-09T22:38:12.492Z,10.75
2023-01-09T22:41:15.509Z,11.12
2023-01-09T22:44:19.337Z,9.93
2023-01-09T22:47:22.186Z,10.10
2023-01-09T22:50:25.008Z,11.40
2023-01-09T22:53:28.960Z,8.73
2023-01-09T22:56:32.381Z,8.40
2023-01-09T22:59:35.567Z,10.00
2023-01-09T23:02:38.294Z,11.93
2023-01-09T23:05:41.236Z,8.88
2023-01-09T23:08:44.352Z,8.88
2023-01-09T23:12:02.661Z,13.25
2023-01-09T23:15:05.931Z,10.73
2023-01-09T23:18:08.741Z,8.60
2023-01-09T23:21:11.366Z,9.68
2023-01-09T23:24:16.698Z,10.77
2023-01-09T23:27:19.232Z,11.23
2023-01-09T23:30:22.332Z,8.32
2023-01-09T23:33:25.109Z,8.30
2023-01-09T23:36:28.279Z,9.88
2023-01-09T23:39:30.995Z,8.27
2023-01-09T23:42:53.330Z,9.82
2023-01-09T23:45:56.081Z,9.43
2023-01-09T23:48:59.065Z,9.35
2023-01-09T23:52:04.965Z,6.80
2023-01-09T23:55:08.186Z,9.70
2023-01-09T23:58:10.765Z,8.32
